ADDS METAR Data INFO
IDs: Format: Raw Decoded Include TAF

Data at: 1124 UTC 17 Jul 2018

K6A2 171115Z AUTO 00000KT 4SM SCT002 OVC075 22/22 A3006 RMK AO2
K6A2 171055Z AUTO 00000KT 2SM BKN002 BKN060 OVC075 22/22 A3005 RMK AO2
K6A2 171035Z AUTO 00000KT 1SM OVC002 22/22 A3004 RMK AO2
K6A2 171015Z AUTO 00000KT 1SM OVC002 22/22 A3004 RMK AO2
K6A2 170955Z AUTO 00000KT 5SM SCT002 22/22 A3003 RMK AO2
K6A2 170935Z AUTO 00000KT 5SM CLR 22/22 A3002 RMK AO2
K6A2 170915Z AUTO 00000KT 3SM BKN002 BKN016 22/22 A3002 RMK AO2
K6A2 170855Z AUTO 25003KT 3SM BKN002 BKN016 22/22 A3002 RMK AO2
K6A2 170835Z AUTO 00000KT 5SM SCT002 22/21 A3002 RMK AO2
K6A2 170815Z AUTO 00000KT 4SM SCT002 SCT023 SCT049 22/21 A3002 RMK AO2
K6A2 170755Z AUTO 00000KT 7SM CLR 22/21 A3002 RMK AO2
K6A2 170735Z AUTO 00000KT 5SM SCT001 SCT011 22/21 A3002 RMK AO2
K6A2 170715Z AUTO 00000KT 5SM BKN001 22/21 A3003 RMK AO2
K6A2 170655Z AUTO 19003KT 3/4SM OVC001 22/22 A3003 RMK AO2
K6A2 170635Z AUTO 00000KT 2 1/2SM OVC001 22/21 A3003 RMK AO2
K6A2 170615Z AUTO 00000KT 5SM OVC001 22/21 A3003 RMK AO2
K6A2 170555Z AUTO 00000KT 5SM OVC001 22/21 A3004 RMK AO2 LTG DSNT S
K6A2 170535Z AUTO 00000KT 7SM BKN001 22/21 A3005 RMK AO2
K6A2 170515Z AUTO 00000KT 7SM SCT001 SCT022 BKN046 22/21 A3005 RMK AO2
K6A2 170455Z AUTO 00000KT 7SM SCT048 BKN050 22/21 A3006 RMK AO2 LTG DSNT E
K6A2 170435Z AUTO 00000KT 5SM OVC055 22/22 A3006 RMK AO2 LTG DSNT E
K6A2 170415Z AUTO 00000KT 5SM OVC055 22/22 A3007 RMK AO2 LTG DSNT NE AND E
K6A2 170355Z AUTO 00000KT 4SM BKN055 OVC065 22/22 A3007 RMK AO2 LTG DSNT E
K6A2 170335Z AUTO 00000KT 5SM SCT065 SCT075 BKN090 22/22 A3007 RMK AO2 LTG DSNT NE THRU SW
K6A2 170315Z AUTO 00000KT 10SM VCTS SCT004 SCT031 SCT065 22/22 A3006 RMK AO2 LTG DSNT NE E AND SW
K6A2 170255Z AUTO 04003KT 10SM SCT004 BKN033 BKN050 22/22 A3006 RMK AO2 LTG DSNT ALQS
K6A2 170235Z AUTO 03004KT 10SM TS SCT028 BKN035 OVC120 22/22 A3006 RMK AO2 LTG DSNT ALQS
K6A2 170215Z AUTO 07003KT 10SM TS SCT028 BKN050 OVC100 23/22 A3005 RMK AO2 LTG DSNT N THRU SE
K6A2 170155Z AUTO 00000KT 10SM TS SCT043 BKN060 OVC110 23/22 A3003 RMK AO2 LTG DSNT ALQS
K6A2 170135Z AUTO 36003KT 10SM TS SCT020 BKN095 OVC120 23/22 A3003 RMK AO2 LTG DSNT ALQS
K6A2 170115Z AUTO 33003KT TS 24/23 A3002 RMK AO2 LTG DSNT ALQS
K6A2 170055Z AUTO 05005KT 2 1/2SM SCT013 BKN032 OVC060 25/24 A3001 RMK AO2 LTG DSNT ALQS
K6A2 170035Z AUTO 00000KT 10SM SCT034 SCT040 SCT055 26/25 A3001 RMK AO2 LTG DSNT SE THRU W
K6A2 170015Z AUTO 00000KT 10SM SCT100 26/25 A3002 RMK AO2 LTG DSNT W AND NW
K6A2 162355Z AUTO 00000KT 10SM CLR 27/25 A3001 RMK AO2
K6A2 162335Z AUTO 00000KT 10SM CLR 28/25 A3000 RMK AO2
K6A2 162315Z AUTO 20005KT 10SM CLR 28/23 A3000 RMK AO2
K6A2 162255Z AUTO 24004KT 10SM CLR 29/23 A3000 RMK AO2
K6A2 162235Z AUTO 19003KT 10SM CLR 28/24 A3000 RMK AO2 LTG DSNT NE
K6A2 162215Z AUTO 18003KT 10SM CLR 28/24 A3000 RMK AO2
K6A2 162155Z AUTO 17003KT 10SM CLR 28/25 A3001 RMK AO2
K6A2 162135Z AUTO 19003KT 10SM CLR 28/25 A3001 RMK AO2 LTG DSNT NE AND SE
K6A2 162115Z AUTO 17005KT 10SM CLR 27/25 A3001 RMK AO2 LTG DSNT NE
K6A2 162055Z AUTO 15003KT 10SM CLR 27/25 A3002 RMK AO2 LTG DSNT N THRU E
K6A2 162035Z AUTO 18003KT 10SM SCT008 SCT020 SCT032 26/25 A3002 RMK AO2 LTG DSNT NE AND E
K6A2 162015Z AUTO 00000KT 1 3/4SM SCT004 BKN011 OVC032 25/24 A3003 RMK AO2 VIS 1/2V5 LTG DSNT NE
K6A2 161955Z AUTO 07006KT M1/4SM OVC005 24/23 A3003 RMK AO2 LTG DSNT N AND NE
K6A2 161935Z AUTO 18005KT 10SM SCT027 SCT032 BKN038 28/25 A3003 RMK AO2 LTG DSNT N AND NE
K6A2 161915Z AUTO 21004KT 10SM SCT027 SCT034 BKN046 28/24 A3004 RMK AO2 LTG DSNT N THRU E
K6A2 161855Z AUTO 18005KT 10SM SCT023 SCT029 BKN044 30/25 A3005 RMK AO2 LTG DSNT SW
K6A2 161835Z AUTO 14004KT 10SM BKN023 BKN030 BKN037 28/24 A3006 RMK AO2 LTG DSNT NE AND SW
K6A2 161815Z AUTO 16003KT 10SM BKN023 BKN028 28/24 A3007 RMK AO2
K6A2 161755Z AUTO 17005KT 10SM SCT020 SCT026 28/24 A3007 RMK AO2
K6A2 161735Z AUTO 00000KT 10SM SCT027 28/24 A3008 RMK AO2
K6A2 161715Z AUTO 00000KT 10SM BKN025 27/23 A3009 RMK AO2
K6A2 161655Z AUTO 00000KT 10SM OVC021 26/23 A3009 RMK AO2
K6A2 161635Z AUTO 00000KT 10SM OVC019 26/23 A3009 RMK AO2
K6A2 161615Z AUTO 16004KT 10SM OVC015 26/23 A3009 RMK AO2
K6A2 161555Z AUTO 19004KT 10SM OVC013 26/23 A3010 RMK AO2
K6A2 161535Z AUTO 00000KT 10SM BKN009 OVC013 25/23 A3009 RMK AO2
K6A2 161515Z AUTO 20004KT 10SM OVC007 25/23 A3010 RMK AO2
K6A2 161455Z AUTO 18004KT 10SM OVC007 25/23 A3010 RMK AO2
K6A2 161435Z AUTO 21003KT 10SM OVC007 25/23 A3009 RMK AO2
K6A2 161415Z AUTO 00000KT 10SM OVC005 24/23 A3010 RMK AO2
K6A2 161355Z AUTO 00000KT 10SM OVC005 23/23 A3010 RMK AO2
K6A2 161335Z AUTO 00000KT 10SM OVC003 23/22 A3008 RMK AO2
K6A2 161315Z AUTO 00000KT 7SM OVC003 22/22 A3008 RMK AO2
K6A2 161255Z AUTO 23003KT 4SM OVC001 22/22 A3008 RMK AO2
K6A2 161235Z AUTO 21003KT 3SM OVC001 22/22 A3008 RMK AO2
K6A2 161215Z AUTO 00000KT 2SM OVC001 22/21 A3008 RMK AO2
K6A2 161155Z AUTO 00000KT 3SM BKN001 OVC006 22/21 A3007 RMK AO2
K6A2 161135Z AUTO 00000KT 1/4SM OVC001 22/21 A3008 RMK AO2
K6A2 161115Z AUTO 18003KT 1/4SM OVC001 22/21 A3007 RMK AO2
K6A2 161055Z AUTO 00000KT 1/2SM OVC001 22/21 A3007 RMK AO2
K6A2 161035Z AUTO 00000KT 1 1/4SM BKN001 OVC008 22/21 A3006 RMK AO2
K6A2 161015Z AUTO 00000KT 1 3/4SM OVC001 22/21 A3006 RMK AO2
K6A2 160955Z AUTO 16003KT 1SM OVC001 22/22 A3006 RMK AO2
K6A2 160935Z AUTO 00000KT 1/2SM OVC001 22/21 A3005 RMK AO2
K6A2 160915Z AUTO 00000KT 1/2SM OVC001 22/22 A3005 RMK AO2
K6A2 160855Z AUTO 00000KT 2 1/2SM OVC001 22/22 A3004 RMK AO2
K6A2 160835Z AUTO 00000KT 4SM BKN001 22/21 A3004 RMK AO2
K6A2 160815Z AUTO 00000KT 3SM SCT001 SCT050 22/21 A3004 RMK AO2
K6A2 160755Z AUTO 00000KT 3SM BKN001 BKN110 22/22 A3003 RMK AO2
K6A2 160735Z AUTO 00000KT 4SM SCT110 22/22 A3002 RMK AO2
K6A2 160715Z AUTO 00000KT 4SM SCT110 22/22 A3002 RMK AO2
K6A2 160655Z AUTO 00000KT 5SM SCT110 22/22 A3003 RMK AO2
K6A2 160635Z AUTO 00000KT 5SM SCT110 22/22 A3004 RMK AO2
K6A2 160615Z AUTO 00000KT 7SM CLR 23/22 A3005 RMK AO2
K6A2 160555Z AUTO 00000KT 10SM SCT100 23/22 A3005 RMK AO2
K6A2 160535Z AUTO 26003KT 10SM SCT100 23/22 A3006 RMK AO2 LTG DSNT N
K6A2 160515Z AUTO 00000KT 10SM SCT100 23/22 A3006 RMK AO2
K6A2 160455Z AUTO 00000KT 10SM SCT100 23/22 A3006 RMK AO2
K6A2 160435Z AUTO 00000KT 10SM SCT100 23/22 A3007 RMK AO2
K6A2 160415Z AUTO 00000KT 10SM SCT100 23/22 A3007 RMK AO2
K6A2 160355Z AUTO 17003KT 10SM SCT043 SCT070 SCT085 23/22 A3007 RMK AO2
K6A2 160335Z AUTO 19003KT 10SM SCT025 SCT036 SCT043 23/23 A3008 RMK AO2
K6A2 160315Z AUTO 17004KT 10SM CLR 23/23 A3008 RMK AO2 LTG DSNT N
K6A2 160255Z AUTO 19004KT 10SM CLR 23/23 A3007 RMK AO2 LTG DSNT N
K6A2 160235Z AUTO 17003KT 10SM SCT110 23/23 A3008 RMK AO2
K6A2 160215Z AUTO 17003KT 10SM CLR 24/23 A3007 RMK AO2 LTG DSNT NW
K6A2 160155Z AUTO 16004KT 10SM SCT110 24/23 A3007 RMK AO2 LTG DSNT NW
K6A2 160135Z AUTO 17004KT 10SM CLR 25/23 A3007 RMK AO2
K6A2 160115Z AUTO 14004KT 10SM SCT110 25/23 A3006 RMK AO2 LTG DSNT S
K6A2 160055Z AUTO 14003KT 10SM SCT065 SCT110 25/24 A3005 RMK AO2
K6A2 160035Z AUTO 13003KT 10SM SCT065 26/23 A3004 RMK AO2
K6A2 160015Z AUTO 14003KT 10SM CLR 26/23 A3003 RMK AO2 LTG DSNT SW
K6A2 152355Z AUTO 15005KT 10SM CLR 27/23 A3003 RMK AO2 LTG DSNT SW
K6A2 152335Z AUTO 14007KT 10SM CLR 27/24 A3003 RMK AO2 LTG DSNT SE AND SW